AirNav   Jet Aviation Boston
 
 472 users online  

F95 Calhoun County Airport
Blountstown, Florida, USA

GOING TO BLOUNTSTOWN?


FAA INFORMATION EFFECTIVE 29 MARCH 2018

Location

FAA Identifier: F95
Lat/Long: 30-29-13.9550N / 085-06-49.6650W
30-29.232583N / 085-06.827750W
30.4872097 / -85.1137958
(estimated)
Elevation: 122 ft. / 37 m (estimated)
Variation: 02W (1995)
From city: 5 miles NW of BLOUNTSTOWN, FL
Time zone: UTC -5 (UTC -6 during Standard Time)
Zip code: 32421

Airport Operations

Airport use: Open to the public
Activation date: 12/1996
Control tower: no
ARTCC: JACKSONVILLE CENTER
FSS: GAINESVILLE FLIGHT SERVICE STATION
NOTAMs facility: GNV (NOTAM-D service available)
Attendance: MON-FRI 0700-1500
Wind indicator: lighted
Segmented circle: yes
Lights: ACTVT MIRL RY 18/36 AND PAPI RYS 18 & 36 - CTAF.
Beacon: white (unlighted land airport)
Operates sunset to sunrise.

Airport Communications

CTAF: 122.9
WX AWOS-AV: 119.350 (850-674-1347)

Nearby radio navigation aids

VOR radial/distance  VOR name  Freq  Var
MAIr178/17.9MARIANNA VORTAC114.0000E
HLLr057/36.6HANDLE VORTAC114.3004W
SZWr262/38.5SEMINOLE VORTAC117.5002E

 
NDB name  Hdg/Dist  Freq  Var  ID
SOYYA168/23.832902WSMY ... -- -.--
LYNNE078/35.927804WPFN .--. ..-. -.

Airport Services

Fuel available: 100LL JET-A
Parking: hangars and tiedowns
Airframe service: MAJOR
Powerplant service: MAJOR
Bottled oxygen: NONE
Bulk oxygen: NONE

Runway Information

Runway 18/36

Dimensions: 3100 x 60 ft. / 945 x 18 m
Surface: asphalt, in good condition
Runway edge lights: medium intensity
RUNWAY 18  RUNWAY 36
Latitude: 30-29.488333N30-28.976833N
Longitude: 085-06.829333W085-06.826167W
Elevation: 120.9 ft.118.1 ft.
Gradient: 0.1% DOWN0.1% UP
Traffic pattern: leftleft
Runway heading: 182 magnetic, 180 true002 magnetic, 360 true
Markings: nonprecision, in good conditionnonprecision, in good condition
Visual slope indicator: 2-light PAPI on left (3.00 degrees glide path)2-light PAPI on left (3.00 degrees glide path)
Obstructions: 88 ft. tree, 1600 ft. from runway, 185 ft. left of centerline, 16:1 slope to clear
APPROACH SLOPE 20:1 TO THE DSPLCD THLD DUE TO 88 FT TREE 185 FT L OF CNTRLN AND 1600 FT FRM RY END.
15 ft. road, 425 ft. from runway, 125 ft. right of centerline, 15:1 slope to clear

Airport Ownership and Management from official FAA records

Ownership: Publicly-owned
Owner: CALHOUN COUNTY
20589 CENTRAL AVENUE EAST
BLOUNTSTOWN, FL 32424
Phone 850-674-4545
Manager: ROBERT FLECK
16701 AGRIPARK ROAD
ALTHA, FL 32421
Phone (850) 674-2499
CELL: 850-643-7582

Airport Operational Statistics

Aircraft based on the field: 11
Single engine airplanes: 11
    
Aircraft operations: avg 38/week *
50% transient general aviation
50% local general aviation
* for 12-month period ending 16 March 2017

Instrument Procedures

There are no published instrument procedures at F95.

Some nearby airports with instrument procedures:

KMAI - Marianna Municipal Airport (21 nm N)
2J9 - Quincy Municipal Airport (30 nm E)
1J0 - Tri-County Airport (33 nm NW)
17J - Donalsonville Municipal Airport (33 nm N)
KPAM - Tyndall Air Force Base (35 nm SW)
 
Loc | Ops | Rwys | IFR | FBO | Links
Com | Nav | Svcs | Stats | Notes

AirNav Hotels Sweepstakes
 
Area around F95 (Calhoun County Airport)
 
Road maps at: MapQuest Bing Google
 
Aerial photo
WARNING: Photo may not be current or correct
Aerial photo of F95 (Calhoun County Airport)
Photo by Brian Christopher
Photo taken 08-Aug-2010

Do you have a better or more recent aerial photo of Calhoun County Airport that you would like to share? If so, please send us your photo.

 
Sectional chart

 
Airport distance calculator
Flying to Calhoun County Airport? Find the distance to fly.

From to F95

Sunrise and sunset
Times for 21-Apr-2018
 Local
(UTC-5)
 Zulu
(UTC)
Morning civil twilight05:4310:43
Sunrise06:0811:08
Sunset19:1100:11
Evening civil twilight19:3600:36

Current date and time
Zulu (UTC)  21-Apr-2018 05:22:08
Local (UTC-5)  21-Apr-2018 00:22:08
 
METAR
KMAI 
21nm N 
210453Z AUTO 08005KT 10SM CLR 16/07 A3020 RMK AO2 SLP226 T01610072
K2J9 
30nm E 
210455Z AUTO 08006KT 10SM OVC050 16/09 A3022 RMK AO2
K1J0 
33nm NW 
210458Z AUTO 05003KT 10SM CLR 14/08 A3021 RMK AO2 SLP188 T01440083 $
KPAM 
34nm SW 
210456Z AUTO 08007KT 10SM FEW048 18/11 A3019 RMK AO2 SLP226 T01810107 $
KECP 
36nm W 
210453Z AUTO 02006KT 10SM CLR 15/09 A3018 RMK AO2 SLP231 T01500094
KBGE 
38nm NE 
210455Z AUTO 07008KT 10SM 16/10 A3023 RMK AO2
KTLH 
40nm E 
210453Z AUTO 08010KT 10SM SCT042 18/12 A3021 RMK AO2 SLP228 T01830117 402560133
TAF
KPAM 
34nm SW 
201800Z 2018/2124 08009KT 9999 FEW050 FEW150 QNH3013INS BECMG 2102/2103 07006KT 9999 SKC QNH3016INS BECMG 2114/2115 07012G18KT 9999 BKN030 BKN150 QNH3007INS TX23/2021Z TN13/2112Z LAST NO AMDS AFT 2023 NEXT 2110
KECP 
36nm W 
201738Z 2018/2118 06007KT P6SM FEW250 FM210600 05006KT P6SM SCT040 FM211500 07012KT P6SM OVC025
KTLH 
40nm E 
201738Z 2018/2118 08008KT P6SM SCT060 SCT250 FM210100 07007KT P6SM SCT030 FM211500 08015KT P6SM BKN025
NOTAMs
Click for the latest NOTAMs
NOTAMs are issued by the DoD/FAA and will open in a separate window not controlled by AirNav.

 

 
 

FBO, Fuel Providers, and Aircraft Ground Support

  
 Business Name 
 
 Contact 
 
 Services / Description 
 
Fuel Prices
 
Comments
  
Calhoun County Airport 850-674-2499
no information available

If you are affiliated with Calhoun County Airport and would like to show here your services, contact info, web link, logo, and more, click here
100LL Jet A
SS $3.98 $3.52 
 Updated 26-Mar-2018
 
   1 read write
SS=Self service
Update Fuel Prices
 

Aviation Businesses, Services, and Facilities

  
 Business Name 
 
 Contact 
 
 Services / Description 
 
Distance
 
Comments
  
 Sunset Eagle Aviation, LLC
850-625-3572
850-691-2318
[web site]
[email]
We strive to bring affordability back to General Aviation!

More info about Sunset Eagle Aviation, LLC
on airport  
   write
 

Would you like to see your business listed on this page?

 If your business provides an interesting product or service to pilots, flight crews, aircraft, or users of the Calhoun County Airport, you should consider listing it here.  To start the listing process, click on the button below
 
Add a business
 

Other Pages about Calhoun County Airport

Update a link
 
Copyright © AirNav, LLC. All rights reserved. Privacy Policy  Contact